sensor_id;sensor_type;location;lat;lon;timestamp;P1;durP1;ratioP1;P2;durP2;ratioP2
45328;SDS011;72636;48.160;11.428;2023-11-21T00:04:45;8.98;;;1.67;;
45328;SDS011;72636;48.160;11.428;2023-11-21T00:07:12;9.52;;;1.92;;
45328;SDS011;72636;48.160;11.428;2023-11-21T00:09:37;5.87;;;1.73;;
45328;SDS011;72636;48.160;11.428;2023-11-21T00:12:03;7.43;;;1.67;;
45328;SDS011;72636;48.160;11.428;2023-11-21T00:14:29;5.78;;;1.48;;
45328;SDS011;72636;48.160;11.428;2023-11-21T00:16:55;8.33;;;1.67;;
45328;SDS011;72636;48.160;11.428;2023-11-21T00:19:20;3.33;;;1.33;;
45328;SDS011;72636;48.160;11.428;2023-11-21T00:21:46;9.43;;;1.57;;
45328;SDS011;72636;48.160;11.428;2023-11-21T00:24:12;5.80;;;1.40;;
45328;SDS011;72636;48.160;11.428;2023-11-21T00:26:40;7.40;;;2.05;;
45328;SDS011;72636;48.160;11.428;2023-11-21T00:29:06;5.80;;;1.33;;
45328;SDS011;72636;48.160;11.428;2023-11-21T00:31:36;6.15;;;1.42;;
45328;SDS011;72636;48.160;11.428;2023-11-21T00:34:04;4.78;;;1.50;;
45328;SDS011;72636;48.160;11.428;2023-11-21T00:36:31;5.53;;;1.30;;
45328;SDS011;72636;48.160;11.428;2023-11-21T00:41:23;4.90;;;1.10;;
45328;SDS011;72636;48.160;11.428;2023-11-21T00:43:48;6.07;;;1.40;;
45328;SDS011;72636;48.160;11.428;2023-11-21T00:46:14;5.27;;;1.40;;
45328;SDS011;72636;48.160;11.428;2023-11-21T00:48:39;4.00;;;1.40;;
45328;SDS011;72636;48.160;11.428;2023-11-21T00:51:05;6.37;;;1.33;;
45328;SDS011;72636;48.160;11.428;2023-11-21T00:53:31;4.80;;;1.20;;
45328;SDS011;72636;48.160;11.428;2023-11-21T00:55:57;4.82;;;1.70;;
45328;SDS011;72636;48.160;11.428;2023-11-21T00:58:25;9.77;;;1.67;;
45328;SDS011;72636;48.160;11.428;2023-11-21T01:00:51;5.38;;;1.20;;
45328;SDS011;72636;48.160;11.428;2023-11-21T01:03:17;5.78;;;1.42;;
45328;SDS011;72636;48.160;11.428;2023-11-21T01:05:43;6.75;;;1.23;;
45328;SDS011;72636;48.160;11.428;2023-11-21T01:08:10;6.55;;;1.60;;
45328;SDS011;72636;48.160;11.428;2023-11-21T01:10:36;6.10;;;1.48;;
45328;SDS011;72636;48.160;11.428;2023-11-21T01:13:01;7.13;;;1.50;;
45328;SDS011;72636;48.160;11.428;2023-11-21T01:15:29;6.10;;;1.30;;
45328;SDS011;72636;48.160;11.428;2023-11-21T01:17:54;9.30;;;1.70;;
45328;SDS011;72636;48.160;11.428;2023-11-21T01:20:20;7.83;;;1.73;;
45328;SDS011;72636;48.160;11.428;2023-11-21T01:22:45;5.67;;;1.37;;
45328;SDS011;72636;48.160;11.428;2023-11-21T01:25:14;7.93;;;1.48;;
45328;SDS011;72636;48.160;11.428;2023-11-21T01:27:41;8.35;;;1.63;;
45328;SDS011;72636;48.160;11.428;2023-11-21T01:30:08;4.78;;;1.30;;
45328;SDS011;72636;48.160;11.428;2023-11-21T01:32:35;6.18;;;1.60;;
45328;SDS011;72636;48.160;11.428;2023-11-21T01:35:01;6.05;;;1.52;;
45328;SDS011;72636;48.160;11.428;2023-11-21T01:37:30;8.35;;;1.63;;
45328;SDS011;72636;48.160;11.428;2023-11-21T01:39:56;5.93;;;1.60;;
45328;SDS011;72636;48.160;11.428;2023-11-21T01:42:21;5.17;;;1.27;;
45328;SDS011;72636;48.160;11.428;2023-11-21T01:44:48;3.92;;;1.35;;
45328;SDS011;72636;48.160;11.428;2023-11-21T01:47:14;5.10;;;1.77;;
45328;SDS011;72636;48.160;11.428;2023-11-21T01:49:40;7.95;;;1.75;;
45328;SDS011;72636;48.160;11.428;2023-11-21T01:52:08;7.30;;;1.85;;
45328;SDS011;72636;48.160;11.428;2023-11-21T01:54:36;7.20;;;1.67;;
45328;SDS011;72636;48.160;11.428;2023-11-21T01:57:02;12.20;;;1.95;;
45328;SDS011;72636;48.160;11.428;2023-11-21T01:59:35;6.10;;;1.70;;
45328;SDS011;72636;48.160;11.428;2023-11-21T02:02:02;6.88;;;1.55;;
45328;SDS011;72636;48.160;11.428;2023-11-21T02:04:30;7.57;;;1.83;;
45328;SDS011;72636;48.160;11.428;2023-11-21T02:06:57;5.78;;;1.52;;
45328;SDS011;72636;48.160;11.428;2023-11-21T02:09:26;6.50;;;1.92;;
45328;SDS011;72636;48.160;11.428;2023-11-21T02:11:52;7.60;;;1.60;;
45328;SDS011;72636;48.160;11.428;2023-11-21T02:16:50;13.52;;;2.15;;
45328;SDS011;72636;48.160;11.428;2023-11-21T02:19:19;7.70;;;1.80;;
45328;SDS011;72636;48.160;11.428;2023-11-21T02:21:50;6.75;;;1.60;;
45328;SDS011;72636;48.160;11.428;2023-11-21T02:24:20;5.22;;;1.02;;
45328;SDS011;72636;48.160;11.428;2023-11-21T02:29:12;4.70;;;1.25;;
45328;SDS011;72636;48.160;11.428;2023-11-21T02:31:38;2.88;;;0.88;;
45328;SDS011;72636;48.160;11.428;2023-11-21T02:34:13;7.85;;;1.10;;
45328;SDS011;72636;48.160;11.428;2023-11-21T02:36:39;2.83;;;1.05;;
45328;SDS011;72636;48.160;11.428;2023-11-21T02:39:05;5.88;;;1.20;;
45328;SDS011;72636;48.160;11.428;2023-11-21T02:41:32;5.30;;;0.98;;
45328;SDS011;72636;48.160;11.428;2023-11-21T02:43:59;4.90;;;1.27;;
45328;SDS011;72636;48.160;11.428;2023-11-21T02:46:25;8.00;;;1.40;;
45328;SDS011;72636;48.160;11.428;2023-11-21T02:48:51;4.45;;;1.13;;
45328;SDS011;72636;48.160;11.428;2023-11-21T02:51:19;4.65;;;1.20;;
45328;SDS011;72636;48.160;11.428;2023-11-21T02:53:45;4.63;;;1.23;;
45328;SDS011;72636;48.160;11.428;2023-11-21T02:56:11;5.78;;;0.98;;
45328;SDS011;72636;48.160;11.428;2023-11-21T02:58:37;4.90;;;1.00;;
45328;SDS011;72636;48.160;11.428;2023-11-21T03:01:06;4.35;;;1.13;;
45328;SDS011;72636;48.160;11.428;2023-11-21T03:05:58;6.35;;;1.20;;
45328;SDS011;72636;48.160;11.428;2023-11-21T03:08:24;3.67;;;1.23;;
45328;SDS011;72636;48.160;11.428;2023-11-21T03:10:50;6.70;;;1.53;;
45328;SDS011;72636;48.160;11.428;2023-11-21T03:13:15;5.43;;;1.33;;
45328;SDS011;72636;48.160;11.428;2023-11-21T03:15:41;5.32;;;1.70;;
45328;SDS011;72636;48.160;11.428;2023-11-21T03:18:07;8.98;;;1.50;;
45328;SDS011;72636;48.160;11.428;2023-11-21T03:20:33;5.97;;;1.90;;
45328;SDS011;72636;48.160;11.428;2023-11-21T03:23:00;4.05;;;1.30;;
45328;SDS011;72636;48.160;11.428;2023-11-21T03:25:25;6.97;;;1.33;;
45328;SDS011;72636;48.160;11.428;2023-11-21T03:27:51;6.10;;;1.83;;
45328;SDS011;72636;48.160;11.428;2023-11-21T03:30:17;8.85;;;1.95;;
45328;SDS011;72636;48.160;11.428;2023-11-21T03:32:42;6.27;;;1.73;;
45328;SDS011;72636;48.160;11.428;2023-11-21T03:35:08;8.33;;;1.80;;
45328;SDS011;72636;48.160;11.428;2023-11-21T03:37:34;6.57;;;1.37;;
45328;SDS011;72636;48.160;11.428;2023-11-21T03:40:00;5.43;;;1.00;;
45328;SDS011;72636;48.160;11.428;2023-11-21T03:42:26;7.45;;;1.20;;
45328;SDS011;72636;48.160;11.428;2023-11-21T03:44:51;9.60;;;1.53;;
45328;SDS011;72636;48.160;11.428;2023-11-21T03:47:17;4.35;;;1.10;;
45328;SDS011;72636;48.160;11.428;2023-11-21T03:52:10;4.30;;;1.30;;
45328;SDS011;72636;48.160;11.428;2023-11-21T03:54:36;3.38;;;0.80;;
45328;SDS011;72636;48.160;11.428;2023-11-21T03:57:02;6.60;;;1.67;;
45328;SDS011;72636;48.160;11.428;2023-11-21T03:59:28;4.60;;;1.20;;
45328;SDS011;72636;48.160;11.428;2023-11-21T04:01:55;2.63;;;0.90;;
45328;SDS011;72636;48.160;11.428;2023-11-21T04:04:22;5.90;;;0.95;;
45328;SDS011;72636;48.160;11.428;2023-11-21T04:06:47;4.18;;;0.88;;
45328;SDS011;72636;48.160;11.428;2023-11-21T04:09:13;6.03;;;1.20;;
45328;SDS011;72636;48.160;11.428;2023-11-21T04:11:39;3.77;;;0.97;;
45328;SDS011;72636;48.160;11.428;2023-11-21T04:14:04;3.90;;;1.37;;
45328;SDS011;72636;48.160;11.428;2023-11-21T04:16:30;7.17;;;1.37;;
45328;SDS011;72636;48.160;11.428;2023-11-21T04:18:55;8.73;;;1.23;;
45328;SDS011;72636;48.160;11.428;2023-11-21T04:21:22;8.98;;;1.50;;
45328;SDS011;72636;48.160;11.428;2023-11-21T04:23:49;4.00;;;1.30;;
45328;SDS011;72636;48.160;11.428;2023-11-21T04:26:15;5.95;;;1.40;;
45328;SDS011;72636;48.160;11.428;2023-11-21T04:28:41;2.42;;;0.93;;
45328;SDS011;72636;48.160;11.428;2023-11-21T04:31:06;3.77;;;1.20;;
45328;SDS011;72636;48.160;11.428;2023-11-21T04:33:32;2.60;;;0.93;;
45328;SDS011;72636;48.160;11.428;2023-11-21T04:35:58;3.50;;;0.90;;
45328;SDS011;72636;48.160;11.428;2023-11-21T04:38:23;3.20;;;0.90;;
45328;SDS011;72636;48.160;11.428;2023-11-21T04:40:49;3.67;;;0.97;;
45328;SDS011;72636;48.160;11.428;2023-11-21T04:43:14;4.40;;;1.37;;
45328;SDS011;72636;48.160;11.428;2023-11-21T04:45:40;4.57;;;1.30;;
45328;SDS011;72636;48.160;11.428;2023-11-21T04:48:06;4.10;;;1.00;;
45328;SDS011;72636;48.160;11.428;2023-11-21T04:50:33;3.50;;;1.15;;
45328;SDS011;72636;48.160;11.428;2023-11-21T04:52:59;5.38;;;1.20;;
45328;SDS011;72636;48.160;11.428;2023-11-21T04:55:25;3.93;;;1.00;;
45328;SDS011;72636;48.160;11.428;2023-11-21T04:57:53;4.03;;;1.08;;
45328;SDS011;72636;48.160;11.428;2023-11-21T05:00:19;3.35;;;0.95;;
45328;SDS011;72636;48.160;11.428;2023-11-21T05:02:46;3.22;;;1.00;;
45328;SDS011;72636;48.160;11.428;2023-11-21T05:05:12;5.20;;;1.33;;
45328;SDS011;72636;48.160;11.428;2023-11-21T05:07:38;3.53;;;1.10;;
45328;SDS011;72636;48.160;11.428;2023-11-21T05:10:08;3.28;;;0.93;;
45328;SDS011;72636;48.160;11.428;2023-11-21T05:12:37;6.45;;;1.58;;
45328;SDS011;72636;48.160;11.428;2023-11-21T05:15:06;2.80;;;0.90;;
45328;SDS011;72636;48.160;11.428;2023-11-21T05:17:38;3.83;;;0.95;;
45328;SDS011;72636;48.160;11.428;2023-11-21T05:20:08;4.85;;;1.13;;
45328;SDS011;72636;48.160;11.428;2023-11-21T05:22:35;3.50;;;1.48;;
45328;SDS011;72636;48.160;11.428;2023-11-21T05:25:01;2.33;;;0.90;;
45328;SDS011;72636;48.160;11.428;2023-11-21T05:27:28;5.88;;;1.15;;
45328;SDS011;72636;48.160;11.428;2023-11-21T05:29:55;3.58;;;1.20;;
45328;SDS011;72636;48.160;11.428;2023-11-21T05:32:21;4.63;;;1.40;;
45328;SDS011;72636;48.160;11.428;2023-11-21T05:34:48;3.67;;;1.30;;
45328;SDS011;72636;48.160;11.428;2023-11-21T05:37:14;5.17;;;1.70;;
45328;SDS011;72636;48.160;11.428;2023-11-21T05:39:40;6.07;;;1.90;;
45328;SDS011;72636;48.160;11.428;2023-11-21T05:42:05;3.40;;;1.87;;
45328;SDS011;72636;48.160;11.428;2023-11-21T05:44:31;4.20;;;2.05;;
45328;SDS011;72636;48.160;11.428;2023-11-21T05:46:57;5.67;;;1.60;;
45328;SDS011;72636;48.160;11.428;2023-11-21T05:49:23;3.65;;;1.10;;
45328;SDS011;72636;48.160;11.428;2023-11-21T05:51:51;4.38;;;1.10;;
45328;SDS011;72636;48.160;11.428;2023-11-21T05:54:19;2.67;;;1.48;;
45328;SDS011;72636;48.160;11.428;2023-11-21T05:56:44;3.85;;;1.77;;
45328;SDS011;72636;48.160;11.428;2023-11-21T05:59:12;4.00;;;1.42;;
45328;SDS011;72636;48.160;11.428;2023-11-21T06:01:37;4.43;;;1.80;;
45328;SDS011;72636;48.160;11.428;2023-11-21T06:04:04;4.15;;;1.60;;
45328;SDS011;72636;48.160;11.428;2023-11-21T06:06:30;4.55;;;1.60;;
45328;SDS011;72636;48.160;11.428;2023-11-21T06:08:56;3.03;;;1.40;;
45328;SDS011;72636;48.160;11.428;2023-11-21T06:11:22;3.45;;;0.88;;
45328;SDS011;72636;48.160;11.428;2023-11-21T06:13:47;1.27;;;0.73;;
45328;SDS011;72636;48.160;11.428;2023-11-21T06:16:14;4.05;;;0.80;;
45328;SDS011;72636;48.160;11.428;2023-11-21T06:18:42;4.03;;;0.75;;
45328;SDS011;72636;48.160;11.428;2023-11-21T06:23:34;2.70;;;0.70;;
45328;SDS011;72636;48.160;11.428;2023-11-21T06:26:00;2.42;;;0.80;;
45328;SDS011;72636;48.160;11.428;2023-11-21T06:28:26;2.70;;;0.77;;
45328;SDS011;72636;48.160;11.428;2023-11-21T06:30:51;2.90;;;0.80;;
45328;SDS011;72636;48.160;11.428;2023-11-21T06:33:18;3.72;;;0.90;;
45328;SDS011;72636;48.160;11.428;2023-11-21T06:35:44;1.58;;;0.60;;
45328;SDS011;72636;48.160;11.428;2023-11-21T06:38:10;2.35;;;0.68;;
45328;SDS011;72636;48.160;11.428;2023-11-21T06:40:35;1.40;;;0.93;;
45328;SDS011;72636;48.160;11.428;2023-11-21T06:43:01;3.83;;;1.20;;
45328;SDS011;72636;48.160;11.428;2023-11-21T06:45:27;2.03;;;0.90;;
45328;SDS011;72636;48.160;11.428;2023-11-21T06:47:52;4.57;;;1.17;;
45328;SDS011;72636;48.160;11.428;2023-11-21T06:50:18;3.47;;;1.10;;
45328;SDS011;72636;48.160;11.428;2023-11-21T06:52:44;1.93;;;1.03;;
45328;SDS011;72636;48.160;11.428;2023-11-21T06:55:09;2.97;;;1.20;;
45328;SDS011;72636;48.160;11.428;2023-11-21T06:57:35;5.00;;;1.00;;
45328;SDS011;72636;48.160;11.428;2023-11-21T07:00:02;1.80;;;0.80;;
45328;SDS011;72636;48.160;11.428;2023-11-21T07:02:28;4.10;;;0.98;;
45328;SDS011;72636;48.160;11.428;2023-11-21T07:04:53;3.53;;;1.00;;
45328;SDS011;72636;48.160;11.428;2023-11-21T07:07:19;2.53;;;1.33;;
45328;SDS011;72636;48.160;11.428;2023-11-21T07:09:45;2.63;;;1.00;;
45328;SDS011;72636;48.160;11.428;2023-11-21T07:12:10;2.13;;;0.73;;
45328;SDS011;72636;48.160;11.428;2023-11-21T07:14:36;2.00;;;0.87;;
45328;SDS011;72636;48.160;11.428;2023-11-21T07:17:04;4.10;;;1.00;;
45328;SDS011;72636;48.160;11.428;2023-11-21T07:19:29;2.28;;;0.70;;
45328;SDS011;72636;48.160;11.428;2023-11-21T07:21:55;2.70;;;0.77;;
45328;SDS011;72636;48.160;11.428;2023-11-21T07:24:21;2.47;;;0.60;;
45328;SDS011;72636;48.160;11.428;2023-11-21T07:29:13;3.28;;;0.65;;
45328;SDS011;72636;48.160;11.428;2023-11-21T07:31:39;1.02;;;0.70;;
45328;SDS011;72636;48.160;11.428;2023-11-21T07:36:32;1.00;;;0.57;;
45328;SDS011;72636;48.160;11.428;2023-11-21T07:38:58;1.17;;;0.60;;
45328;SDS011;72636;48.160;11.428;2023-11-21T07:41:23;1.13;;;0.70;;
45328;SDS011;72636;48.160;11.428;2023-11-21T07:43:49;3.73;;;0.77;;
45328;SDS011;72636;48.160;11.428;2023-11-21T07:46:15;3.13;;;0.83;;
45328;SDS011;72636;48.160;11.428;2023-11-21T07:48:41;1.90;;;0.77;;
45328;SDS011;72636;48.160;11.428;2023-11-21T07:51:07;1.00;;;0.73;;
45328;SDS011;72636;48.160;11.428;2023-11-21T07:53:34;2.90;;;0.80;;
45328;SDS011;72636;48.160;11.428;2023-11-21T07:58:29;2.90;;;1.05;;
45328;SDS011;72636;48.160;11.428;2023-11-21T08:00:55;4.63;;;1.92;;
45328;SDS011;72636;48.160;11.428;2023-11-21T08:03:22;3.08;;;1.95;;
45328;SDS011;72636;48.160;11.428;2023-11-21T08:05:47;6.00;;;1.83;;
45328;SDS011;72636;48.160;11.428;2023-11-21T08:08:13;3.37;;;1.90;;
45328;SDS011;72636;48.160;11.428;2023-11-21T08:10:38;4.40;;;1.47;;
45328;SDS011;72636;48.160;11.428;2023-11-21T08:13:04;2.77;;;1.07;;
45328;SDS011;72636;48.160;11.428;2023-11-21T08:15:31;2.33;;;0.80;;
45328;SDS011;72636;48.160;11.428;2023-11-21T08:17:57;1.23;;;0.75;;
45328;SDS011;72636;48.160;11.428;2023-11-21T08:20:26;3.55;;;1.00;;
45328;SDS011;72636;48.160;11.428;2023-11-21T08:22:51;3.07;;;1.00;;
45328;SDS011;72636;48.160;11.428;2023-11-21T08:25:17;4.22;;;1.48;;
45328;SDS011;72636;48.160;11.428;2023-11-21T08:27:45;4.07;;;1.95;;
45328;SDS011;72636;48.160;11.428;2023-11-21T08:30:11;3.75;;;1.30;;
45328;SDS011;72636;48.160;11.428;2023-11-21T08:32:38;2.50;;;0.95;;
45328;SDS011;72636;48.160;11.428;2023-11-21T08:35:04;3.85;;;1.00;;
45328;SDS011;72636;48.160;11.428;2023-11-21T08:37:31;3.28;;;1.05;;
45328;SDS011;72636;48.160;11.428;2023-11-21T08:39:58;2.03;;;0.93;;
45328;SDS011;72636;48.160;11.428;2023-11-21T08:42:27;2.30;;;1.17;;
45328;SDS011;72636;48.160;11.428;2023-11-21T08:44:55;1.77;;;1.10;;
45328;SDS011;72636;48.160;11.428;2023-11-21T08:47:22;4.03;;;0.98;;
45328;SDS011;72636;48.160;11.428;2023-11-21T08:49:49;2.55;;;1.00;;
45328;SDS011;72636;48.160;11.428;2023-11-21T08:52:18;4.10;;;0.90;;
45328;SDS011;72636;48.160;11.428;2023-11-21T08:54:45;4.82;;;1.10;;
45328;SDS011;72636;48.160;11.428;2023-11-21T08:57:11;2.97;;;1.07;;
45328;SDS011;72636;48.160;11.428;2023-11-21T08:59:37;4.53;;;1.03;;
45328;SDS011;72636;48.160;11.428;2023-11-21T09:02:02;3.67;;;0.93;;
45328;SDS011;72636;48.160;11.428;2023-11-21T09:04:28;3.83;;;0.90;;
45328;SDS011;72636;48.160;11.428;2023-11-21T09:06:53;2.40;;;1.00;;
45328;SDS011;72636;48.160;11.428;2023-11-21T09:09:19;3.60;;;0.80;;
45328;SDS011;72636;48.160;11.428;2023-11-21T09:11:45;2.10;;;0.80;;
45328;SDS011;72636;48.160;11.428;2023-11-21T09:14:11;2.15;;;0.95;;
45328;SDS011;72636;48.160;11.428;2023-11-21T09:16:40;2.90;;;1.17;;
45328;SDS011;72636;48.160;11.428;2023-11-21T09:19:06;2.97;;;1.02;;
45328;SDS011;72636;48.160;11.428;2023-11-21T09:21:31;3.70;;;1.00;;
45328;SDS011;72636;48.160;11.428;2023-11-21T09:23:59;3.83;;;1.00;;
45328;SDS011;72636;48.160;11.428;2023-11-21T09:26:25;6.57;;;1.40;;
45328;SDS011;72636;48.160;11.428;2023-11-21T09:28:51;3.30;;;1.08;;
45328;SDS011;72636;48.160;11.428;2023-11-21T09:31:17;3.22;;;1.30;;
45328;SDS011;72636;48.160;11.428;2023-11-21T09:33:47;3.60;;;0.90;;
45328;SDS011;72636;48.160;11.428;2023-11-21T09:36:13;3.65;;;0.90;;
45328;SDS011;72636;48.160;11.428;2023-11-21T09:38:39;3.25;;;1.08;;
45328;SDS011;72636;48.160;11.428;2023-11-21T09:41:07;2.10;;;1.05;;
45328;SDS011;72636;48.160;11.428;2023-11-21T09:43:44;2.72;;;1.33;;
45328;SDS011;72636;48.160;11.428;2023-11-21T09:46:12;3.00;;;1.10;;
45328;SDS011;72636;48.160;11.428;2023-11-21T09:48:44;3.90;;;1.10;;
45328;SDS011;72636;48.160;11.428;2023-11-21T09:51:15;7.70;;;1.27;;
45328;SDS011;72636;48.160;11.428;2023-11-21T09:53:44;4.10;;;1.10;;
45328;SDS011;72636;48.160;11.428;2023-11-21T09:56:14;3.65;;;1.00;;
45328;SDS011;72636;48.160;11.428;2023-11-21T09:58:45;4.70;;;1.25;;
45328;SDS011;72636;48.160;11.428;2023-11-21T10:01:11;5.30;;;1.50;;
45328;SDS011;72636;48.160;11.428;2023-11-21T10:03:39;3.72;;;1.10;;
45328;SDS011;72636;48.160;11.428;2023-11-21T10:06:07;3.72;;;1.10;;
45328;SDS011;72636;48.160;11.428;2023-11-21T10:08:34;2.25;;;1.00;;
45328;SDS011;72636;48.160;11.428;2023-11-21T10:11:01;1.73;;;1.20;;
45328;SDS011;72636;48.160;11.428;2023-11-21T10:13:31;4.38;;;1.20;;
45328;SDS011;72636;48.160;11.428;2023-11-21T10:15:58;3.95;;;1.17;;
45328;SDS011;72636;48.160;11.428;2023-11-21T10:20:51;4.00;;;1.10;;
45328;SDS011;72636;48.160;11.428;2023-11-21T10:23:18;3.15;;;1.13;;
45328;SDS011;72636;48.160;11.428;2023-11-21T10:25:46;2.15;;;0.80;;
45328;SDS011;72636;48.160;11.428;2023-11-21T10:28:11;6.17;;;1.77;;
45328;SDS011;72636;48.160;11.428;2023-11-21T10:30:37;3.50;;;0.90;;
45328;SDS011;72636;48.160;11.428;2023-11-21T10:33:05;4.38;;;1.08;;
45328;SDS011;72636;48.160;11.428;2023-11-21T10:35:47;3.15;;;1.20;;
45328;SDS011;72636;48.160;11.428;2023-11-21T10:38:18;2.05;;;1.00;;
45328;SDS011;72636;48.160;11.428;2023-11-21T10:40:46;2.00;;;0.80;;
45328;SDS011;72636;48.160;11.428;2023-11-21T10:43:13;3.60;;;1.20;;
45328;SDS011;72636;48.160;11.428;2023-11-21T10:45:40;3.92;;;1.50;;
45328;SDS011;72636;48.160;11.428;2023-11-21T10:48:10;6.03;;;1.35;;
45328;SDS011;72636;48.160;11.428;2023-11-21T10:50:40;2.10;;;1.00;;
45328;SDS011;72636;48.160;11.428;2023-11-21T10:53:07;1.15;;;0.90;;
45328;SDS011;72636;48.160;11.428;2023-11-21T10:55:33;3.75;;;1.30;;
45328;SDS011;72636;48.160;11.428;2023-11-21T10:58:00;2.80;;;1.13;;
45328;SDS011;72636;48.160;11.428;2023-11-21T11:00:30;3.33;;;1.20;;
45328;SDS011;72636;48.160;11.428;2023-11-21T11:02:59;6.18;;;1.50;;
45328;SDS011;72636;48.160;11.428;2023-11-21T11:05:26;4.47;;;1.20;;
45328;SDS011;72636;48.160;11.428;2023-11-21T11:10:33;3.88;;;1.27;;
45328;SDS011;72636;48.160;11.428;2023-11-21T11:12:59;3.70;;;1.50;;
45328;SDS011;72636;48.160;11.428;2023-11-21T11:15:26;4.82;;;1.20;;
45328;SDS011;72636;48.160;11.428;2023-11-21T11:20:23;4.47;;;1.30;;
45328;SDS011;72636;48.160;11.428;2023-11-21T11:25:29;5.72;;;1.42;;
45328;SDS011;72636;48.160;11.428;2023-11-21T11:30:45;2.42;;;0.90;;
45328;SDS011;72636;48.160;11.428;2023-11-21T11:33:51;4.55;;;1.25;;
45328;SDS011;72636;48.160;11.428;2023-11-21T11:36:26;4.10;;;1.10;;
45328;SDS011;72636;48.160;11.428;2023-11-21T11:38:59;3.42;;;1.00;;
45328;SDS011;72636;48.160;11.428;2023-11-21T11:41:27;2.55;;;1.00;;
45328;SDS011;72636;48.160;11.428;2023-11-21T11:43:57;3.70;;;1.08;;
45328;SDS011;72636;48.160;11.428;2023-11-21T11:49:11;4.05;;;0.93;;
45328;SDS011;72636;48.160;11.428;2023-11-21T11:52:30;2.15;;;0.88;;
45328;SDS011;72636;48.160;11.428;2023-11-21T11:54:54;2.13;;;1.20;;
45328;SDS011;72636;48.160;11.428;2023-11-21T11:57:23;1.65;;;0.95;;
45328;SDS011;72636;48.160;11.428;2023-11-21T12:02:45;2.88;;;0.90;;
45328;SDS011;72636;48.160;11.428;2023-11-21T12:05:20;2.40;;;1.02;;
45328;SDS011;72636;48.160;11.428;2023-11-21T12:07:51;2.55;;;0.80;;
45328;SDS011;72636;48.160;11.428;2023-11-21T12:10:19;2.28;;;1.00;;
45328;SDS011;72636;48.160;11.428;2023-11-21T12:12:51;1.42;;;0.57;;
45328;SDS011;72636;48.160;11.428;2023-11-21T12:15:19;2.60;;;1.30;;
45328;SDS011;72636;48.160;11.428;2023-11-21T12:20:15;2.60;;;1.08;;
45328;SDS011;72636;48.160;11.428;2023-11-21T12:22:53;2.72;;;0.80;;
45328;SDS011;72636;48.160;11.428;2023-11-21T12:25:24;2.33;;;0.93;;
45328;SDS011;72636;48.160;11.428;2023-11-21T12:27:53;5.38;;;1.02;;
45328;SDS011;72636;48.160;11.428;2023-11-21T12:30:20;4.35;;;1.05;;
45328;SDS011;72636;48.160;11.428;2023-11-21T12:32:48;1.50;;;0.88;;
45328;SDS011;72636;48.160;11.428;2023-11-21T12:35:16;3.38;;;0.85;;
45328;SDS011;72636;48.160;11.428;2023-11-21T12:37:46;3.25;;;1.00;;
45328;SDS011;72636;48.160;11.428;2023-11-21T12:42:43;2.33;;;0.95;;
45328;SDS011;72636;48.160;11.428;2023-11-21T12:47:45;2.83;;;0.98;;
45328;SDS011;72636;48.160;11.428;2023-11-21T12:50:19;3.90;;;0.98;;
45328;SDS011;72636;48.160;11.428;2023-11-21T12:52:53;2.33;;;1.13;;
45328;SDS011;72636;48.160;11.428;2023-11-21T12:55:22;4.07;;;1.50;;
45328;SDS011;72636;48.160;11.428;2023-11-21T12:57:52;4.68;;;1.20;;
45328;SDS011;72636;48.160;11.428;2023-11-21T13:00:20;6.57;;;1.33;;
45328;SDS011;72636;48.160;11.428;2023-11-21T13:02:58;2.95;;;1.27;;
45328;SDS011;72636;48.160;11.428;2023-11-21T13:05:24;1.95;;;1.25;;
45328;SDS011;72636;48.160;11.428;2023-11-21T13:07:51;2.42;;;0.90;;
45328;SDS011;72636;48.160;11.428;2023-11-21T13:10:19;3.75;;;0.80;;
45328;SDS011;72636;48.160;11.428;2023-11-21T13:12:54;2.60;;;0.90;;
45328;SDS011;72636;48.160;11.428;2023-11-21T13:15:23;2.55;;;1.02;;
45328;SDS011;72636;48.160;11.428;2023-11-21T13:17:52;5.82;;;1.17;;
45328;SDS011;72636;48.160;11.428;2023-11-21T13:20:19;1.85;;;1.02;;
45328;SDS011;72636;48.160;11.428;2023-11-21T13:22:57;4.38;;;1.52;;
45328;SDS011;72636;48.160;11.428;2023-11-21T13:25:27;3.65;;;1.10;;
45328;SDS011;72636;48.160;11.428;2023-11-21T13:27:53;2.78;;;1.10;;
45328;SDS011;72636;48.160;11.428;2023-11-21T13:30:19;1.60;;;0.80;;
45328;SDS011;72636;48.160;11.428;2023-11-21T13:33:07;1.27;;;0.80;;
45328;SDS011;72636;48.160;11.428;2023-11-21T13:35:35;2.30;;;1.10;;
45328;SDS011;72636;48.160;11.428;2023-11-21T13:38:11;3.70;;;1.33;;
45328;SDS011;72636;48.160;11.428;2023-11-21T13:40:39;3.38;;;1.30;;
45328;SDS011;72636;48.160;11.428;2023-11-21T13:43:15;1.30;;;0.80;;
45328;SDS011;72636;48.160;11.428;2023-11-21T13:45:44;2.70;;;1.10;;
45328;SDS011;72636;48.160;11.428;2023-11-21T13:48:11;1.48;;;0.90;;
45328;SDS011;72636;48.160;11.428;2023-11-21T13:51:00;3.10;;;1.20;;
45328;SDS011;72636;48.160;11.428;2023-11-21T13:53:35;4.57;;;1.10;;
45328;SDS011;72636;48.160;11.428;2023-11-21T13:56:02;2.53;;;1.00;;
45328;SDS011;72636;48.160;11.428;2023-11-21T13:58:28;8.70;;;1.40;;
45328;SDS011;72636;48.160;11.428;2023-11-21T14:01:12;4.53;;;2.10;;
45328;SDS011;72636;48.160;11.428;2023-11-21T14:03:59;1.65;;;1.30;;
45328;SDS011;72636;48.160;11.428;2023-11-21T14:06:38;1.80;;;0.55;;
45328;SDS011;72636;48.160;11.428;2023-11-21T14:09:20;0.22;;;0.22;;
45328;SDS011;72636;48.160;11.428;2023-11-21T14:11:57;1.58;;;0.50;;
45328;SDS011;72636;48.160;11.428;2023-11-21T14:14:23;0.45;;;0.40;;
45328;SDS011;72636;48.160;11.428;2023-11-21T14:16:51;0.45;;;0.45;;
45328;SDS011;72636;48.160;11.428;2023-11-21T14:19:23;2.40;;;0.75;;
45328;SDS011;72636;48.160;11.428;2023-11-21T14:21:55;1.40;;;0.82;;
45328;SDS011;72636;48.160;11.428;2023-11-21T14:24:21;0.70;;;0.70;;
45328;SDS011;72636;48.160;11.428;2023-11-21T14:26:48;2.53;;;0.70;;
45328;SDS011;72636;48.160;11.428;2023-11-21T14:29:15;1.10;;;0.80;;
45328;SDS011;72636;48.160;11.428;2023-11-21T14:31:45;2.35;;;0.77;;
45328;SDS011;72636;48.160;11.428;2023-11-21T14:34:11;0.65;;;0.60;;
45328;SDS011;72636;48.160;11.428;2023-11-21T14:36:38;2.08;;;0.88;;
45328;SDS011;72636;48.160;11.428;2023-11-21T14:39:04;0.98;;;0.65;;
45328;SDS011;72636;48.160;11.428;2023-11-21T14:41:34;1.02;;;0.40;;
45328;SDS011;72636;48.160;11.428;2023-11-21T14:44:02;3.95;;;1.13;;
45328;SDS011;72636;48.160;11.428;2023-11-21T14:46:29;1.25;;;0.90;;
45328;SDS011;72636;48.160;11.428;2023-11-21T14:48:54;1.15;;;1.02;;
45328;SDS011;72636;48.160;11.428;2023-11-21T14:51:58;1.55;;;0.90;;
45328;SDS011;72636;48.160;11.428;2023-11-21T14:54:33;1.40;;;0.80;;
45328;SDS011;72636;48.160;11.428;2023-11-21T14:57:10;1.35;;;0.80;;
45328;SDS011;72636;48.160;11.428;2023-11-21T14:59:42;1.45;;;1.00;;
45328;SDS011;72636;48.160;11.428;2023-11-21T15:02:12;1.20;;;1.10;;
45328;SDS011;72636;48.160;11.428;2023-11-21T15:04:42;1.52;;;1.17;;
45328;SDS011;72636;48.160;11.428;2023-11-21T15:07:08;1.15;;;0.98;;
45328;SDS011;72636;48.160;11.428;2023-11-21T15:09:35;0.85;;;0.85;;
45328;SDS011;72636;48.160;11.428;2023-11-21T15:12:07;0.95;;;0.88;;
45328;SDS011;72636;48.160;11.428;2023-11-21T15:14:46;1.15;;;0.90;;
45328;SDS011;72636;48.160;11.428;2023-11-21T15:17:19;1.85;;;1.20;;
45328;SDS011;72636;48.160;11.428;2023-11-21T15:19:51;1.65;;;1.08;;
45328;SDS011;72636;48.160;11.428;2023-11-21T15:22:17;2.22;;;1.00;;
45328;SDS011;72636;48.160;11.428;2023-11-21T15:24:43;1.38;;;1.00;;
45328;SDS011;72636;48.160;11.428;2023-11-21T15:27:11;2.17;;;1.42;;
45328;SDS011;72636;48.160;11.428;2023-11-21T15:29:41;1.83;;;1.40;;